DLH2020 EDDH-LPFR
Flight info
| Callsign | DLH2020 |
|---|---|
| Flight time | 1h 41m |
| Altitude | 60000 |
| Route | ELSOB3G/33 ELSOB DCT OSTOR DCT CUXIE DCT ABFAD DCT AMCUB DCT HUNQI DCT UTIRA DCT PODOD DCT RODIR DCT LEGBA DCT MOTOX DCT BRILL DCT TEJOP DCT NEXEP DCT DEMOS DCT PT814 DCT MAZUK DCT 37N009W DCT GIMAL |
| Aircraft | CONC/H-SDE2E3FGHIRYW/X |
Departure
| Time | 2026-04-24 19:28 |
|---|---|
| Airport | Hamburg Helmut Schmidt Airport (EDDH) |
Arrival
| Time | 2026-04-24 21:09 |
|---|---|
| Airport | Faro - Gago Coutinho International Airport (LPFR) |
| Time | Latitude | Longitude | Altitude | Speed | Heading |
|---|---|---|---|---|---|
| 2026-04-24 18:54 | 53.63414 | 10.00346 | 55 ft | 0 kts | 85° |
| 2026-04-24 19:00 | 53.63414 | 10.00345 | 55 ft | 0 kts | 85° |
| 2026-04-24 19:14 | 53.63413 | 10.00321 | 49 ft | 4 kts | 86° |
| 2026-04-24 19:14 | 53.63412 | 10.00276 | 50 ft | 4 kts | 86° |
| 2026-04-24 19:14 | 53.63410 | 10.00231 | 52 ft | 4 kts | 86° |
| 2026-04-24 19:14 | 53.63409 | 10.00199 | 55 ft | 4 kts | 127° |
| 2026-04-24 19:15 | 53.63427 | 10.00187 | 50 ft | 4 kts | 176° |
| 2026-04-24 19:15 | 53.63454 | 10.00188 | 54 ft | 4 kts | 189° |
| 2026-04-24 19:15 | 53.63480 | 10.00199 | 53 ft | 4 kts | 204° |
| 2026-04-24 19:15 | 53.63503 | 10.00221 | 51 ft | 4 kts | 218° |
| 2026-04-24 19:16 | 53.63527 | 10.00258 | 51 ft | 1 kts | 229° |
| 2026-04-24 19:18 | 53.63520 | 10.00247 | 51 ft | 4 kts | 229° |
| 2026-04-24 19:18 | 53.63504 | 10.00216 | 51 ft | 6 kts | 229° |
| 2026-04-24 19:19 | 53.63456 | 10.00119 | 55 ft | 11 kts | 230° |
| 2026-04-24 19:19 | 53.63416 | 10.00038 | 55 ft | 7 kts | 230° |
| 2026-04-24 19:19 | 53.63378 | 9.99963 | 55 ft | 10 kts | 230° |
| 2026-04-24 19:19 | 53.63328 | 9.99862 | 55 ft | 13 kts | 230° |
| 2026-04-24 19:20 | 53.63262 | 9.99764 | 55 ft | 13 kts | 201° |
| 2026-04-24 19:20 | 53.63179 | 9.99800 | 55 ft | 13 kts | 155° |
| 2026-04-24 19:20 | 53.63093 | 9.99873 | 55 ft | 15 kts | 152° |
| 2026-04-24 19:20 | 53.63037 | 9.99923 | 55 ft | 0 kts | 152° |
| 2026-04-24 19:21 | 53.63019 | 9.99938 | 55 ft | 7 kts | 152° |
| 2026-04-24 19:21 | 53.62962 | 9.99988 | 55 ft | 9 kts | 153° |
| 2026-04-24 19:21 | 53.62905 | 10.00033 | 52 ft | 9 kts | 163° |
| 2026-04-24 19:22 | 53.62877 | 10.00027 | 55 ft | 0 kts | 194° |
| 2026-04-24 19:23 | 53.62867 | 10.00010 | 51 ft | 4 kts | 220° |
| 2026-04-24 19:23 | 53.62848 | 9.99967 | 54 ft | 3 kts | 239° |
| 2026-04-24 19:24 | 53.62848 | 9.99965 | 54 ft | 0 kts | 239° |
| 2026-04-24 19:25 | 53.62831 | 9.99914 | 53 ft | 10 kts | 241° |
| 2026-04-24 19:25 | 53.62821 | 9.99812 | 52 ft | 7 kts | 291° |
| 2026-04-24 19:25 | 53.62858 | 9.99754 | 52 ft | 9 kts | 324° |
| 2026-04-24 19:25 | 53.62896 | 9.99720 | 52 ft | 0 kts | 333° |
| 2026-04-24 19:27 | 53.62969 | 9.99658 | 52 ft | 51 kts | 332° |
| 2026-04-24 19:27 | 53.63668 | 9.99049 | 52 ft | 175 kts | 332° |
| 2026-04-24 19:27 | 53.65042 | 9.97819 | 599 ft | 259 kts | 330° |
| 2026-04-24 19:28 | 53.66503 | 9.96512 | 1433 ft | 226 kts | 332° |
| 2026-04-24 19:28 | 53.67786 | 9.95194 | 2933 ft | 195 kts | 334° |
| 2026-04-24 19:28 | 53.68709 | 9.94387 | 5657 ft | 121 kts | 339° |
| 2026-04-24 19:28 | 53.69549 | 9.93740 | 6598 ft | 146 kts | 340° |
| 2026-04-24 19:29 | 53.71903 | 9.92039 | 6246 ft | 247 kts | 339° |
| 2026-04-24 19:29 | 53.73687 | 9.89312 | 2424 ft | 459 kts | 299° |
| 2026-04-24 19:29 | 53.74551 | 9.84192 | 4259 ft | 442 kts | 284° |
| 2026-04-24 19:30 | 53.74572 | 9.79278 | 4564 ft | 402 kts | 263° |
| 2026-04-24 19:30 | 53.73569 | 9.75095 | 4808 ft | 373 kts | 238° |
| 2026-04-24 19:30 | 53.71800 | 9.72211 | 5488 ft | 335 kts | 224° |
| 2026-04-24 19:30 | 53.70056 | 9.70013 | 6215 ft | 290 kts | 226° |
| 2026-04-24 19:31 | 53.68581 | 9.67957 | 6998 ft | 277 kts | 228° |
| 2026-04-24 19:31 | 53.67300 | 9.65518 | 7746 ft | 278 kts | 239° |
| 2026-04-24 19:31 | 53.66301 | 9.62758 | 8518 ft | 273 kts | 257° |
| 2026-04-24 19:31 | 53.66162 | 9.59691 | 9386 ft | 263 kts | 285° |
| 2026-04-24 19:32 | 53.66624 | 9.56633 | 9782 ft | 273 kts | 292° |
| 2026-04-24 19:32 | 53.67281 | 9.53652 | 9929 ft | 271 kts | 296° |
| 2026-04-24 19:32 | 53.68003 | 9.50774 | 10428 ft | 261 kts | 296° |
| 2026-04-24 19:32 | 53.68773 | 9.47896 | 11203 ft | 284 kts | 298° |
| 2026-04-24 19:33 | 53.69731 | 9.44738 | 11982 ft | 321 kts | 300° |
| 2026-04-24 19:33 | 53.70843 | 9.41362 | 12761 ft | 331 kts | 301° |
| 2026-04-24 19:33 | 53.72007 | 9.37932 | 13556 ft | 349 kts | 300° |
| 2026-04-24 19:33 | 53.73273 | 9.34211 | 14325 ft | 381 kts | 300° |
| 2026-04-24 19:34 | 53.74614 | 9.30233 | 15055 ft | 408 kts | 300° |
| 2026-04-24 19:34 | 53.76059 | 9.25917 | 15819 ft | 437 kts | 300° |
| 2026-04-24 19:34 | 53.77582 | 9.21361 | 16574 ft | 447 kts | 300° |
| 2026-04-24 19:34 | 53.79115 | 9.16772 | 17358 ft | 453 kts | 300° |
| 2026-04-24 19:35 | 53.80669 | 9.12113 | 18415 ft | 453 kts | 299° |
| 2026-04-24 19:35 | 53.82204 | 9.07442 | 19853 ft | 456 kts | 300° |
| 2026-04-24 19:35 | 53.83900 | 9.02849 | 21359 ft | 464 kts | 303° |
| 2026-04-24 19:35 | 53.85721 | 8.98276 | 22943 ft | 472 kts | 303° |
| 2026-04-24 19:36 | 53.87285 | 8.93383 | 24486 ft | 476 kts | 288° |
| 2026-04-24 19:36 | 53.88020 | 8.87710 | 24956 ft | 513 kts | 272° |
| 2026-04-24 19:36 | 53.87884 | 8.81520 | 26117 ft | 539 kts | 268° |
| 2026-04-24 19:36 | 53.87708 | 8.75160 | 27665 ft | 555 kts | 267° |
| 2026-04-24 19:37 | 53.87465 | 8.68570 | 29293 ft | 564 kts | 266° |
| 2026-04-24 19:37 | 53.87182 | 8.61874 | 30711 ft | 576 kts | 266° |
| 2026-04-24 19:37 | 53.86891 | 8.55011 | 31740 ft | 593 kts | 266° |
| 2026-04-24 19:37 | 53.86595 | 8.47946 | 32763 ft | 604 kts | 266° |
| 2026-04-24 19:38 | 53.86284 | 8.40804 | 34267 ft | 615 kts | 264° |
| 2026-04-24 19:38 | 53.85342 | 8.33635 | 35085 ft | 637 kts | 249° |
| 2026-04-24 19:38 | 53.83268 | 8.26855 | 35872 ft | 663 kts | 237° |
| 2026-04-24 19:38 | 53.80547 | 8.20378 | 36661 ft | 688 kts | 235° |
| 2026-04-24 19:39 | 53.77677 | 8.13879 | 37546 ft | 712 kts | 234° |
| 2026-04-24 19:39 | 53.74644 | 8.07081 | 38494 ft | 737 kts | 234° |
| 2026-04-24 19:39 | 53.71499 | 8.00066 | 39274 ft | 762 kts | 234° |
| 2026-04-24 19:39 | 53.68247 | 7.92826 | 40012 ft | 787 kts | 234° |
| 2026-04-24 19:40 | 53.64977 | 7.85248 | 40827 ft | 810 kts | 238° |
| 2026-04-24 19:40 | 53.61902 | 7.77108 | 41636 ft | 837 kts | 239° |
| 2026-04-24 19:40 | 53.58738 | 7.68689 | 42508 ft | 864 kts | 239° |
| 2026-04-24 19:40 | 53.55496 | 7.59992 | 43412 ft | 893 kts | 239° |
| 2026-04-24 19:41 | 53.52131 | 7.51001 | 44337 ft | 923 kts | 239° |
| 2026-04-24 19:41 | 53.48651 | 7.41745 | 45230 ft | 952 kts | 239° |
| 2026-04-24 19:41 | 53.45074 | 7.32275 | 45861 ft | 969 kts | 239° |
| 2026-04-24 19:41 | 53.41428 | 7.22660 | 46319 ft | 985 kts | 239° |
| 2026-04-24 19:42 | 53.37765 | 7.13039 | 46770 ft | 1000 kts | 238° |
| 2026-04-24 19:42 | 53.33992 | 7.03167 | 47220 ft | 1014 kts | 238° |
| 2026-04-24 19:42 | 53.30154 | 6.93166 | 47653 ft | 1027 kts | 238° |
| 2026-04-24 19:42 | 53.26262 | 6.83064 | 48051 ft | 1040 kts | 238° |
| 2026-04-24 19:43 | 53.22318 | 6.72869 | 48448 ft | 1052 kts | 238° |
| 2026-04-24 19:43 | 53.18313 | 6.62559 | 48825 ft | 1064 kts | 238° |
| 2026-04-24 19:43 | 53.14263 | 6.52177 | 49167 ft | 1074 kts | 238° |
| 2026-04-24 19:43 | 53.10160 | 6.41699 | 49506 ft | 1085 kts | 238° |
| 2026-04-24 19:44 | 53.06015 | 6.31162 | 49816 ft | 1095 kts | 238° |
| 2026-04-24 19:44 | 53.01815 | 6.20527 | 50120 ft | 1104 kts | 238° |
| 2026-04-24 19:44 | 52.97578 | 6.09842 | 50403 ft | 1114 kts | 237° |
| 2026-04-24 19:45 | 52.89010 | 5.88377 | 49876 ft | 1110 kts | 237° |
| 2026-04-24 19:45 | 52.84765 | 5.77816 | 49991 ft | 1097 kts | 237° |
| 2026-04-24 19:45 | 52.80601 | 5.67509 | 50259 ft | 1091 kts | 237° |
| 2026-04-24 19:45 | 52.76356 | 5.57046 | 50534 ft | 1100 kts | 237° |
| 2026-04-24 19:46 | 52.72071 | 5.46527 | 50812 ft | 1109 kts | 237° |
| 2026-04-24 19:46 | 52.67740 | 5.35940 | 51101 ft | 1118 kts | 237° |
| 2026-04-24 19:46 | 52.63388 | 5.25346 | 51379 ft | 1116 kts | 237° |
| 2026-04-24 19:46 | 52.59017 | 5.14752 | 51647 ft | 1120 kts | 236° |
| 2026-04-24 19:47 | 52.54637 | 5.04185 | 51898 ft | 1119 kts | 236° |
| 2026-04-24 19:47 | 52.50241 | 4.93623 | 52154 ft | 1123 kts | 236° |
| 2026-04-24 19:47 | 52.45825 | 4.83060 | 52390 ft | 1121 kts | 236° |
| 2026-04-24 19:47 | 52.41458 | 4.72656 | 52618 ft | 1125 kts | 236° |
| 2026-04-24 19:48 | 52.37015 | 4.62118 | 52835 ft | 1123 kts | 236° |
| 2026-04-24 19:48 | 52.32558 | 4.51593 | 53030 ft | 1127 kts | 236° |
| 2026-04-24 19:48 | 52.23605 | 4.30586 | 53435 ft | 1129 kts | 236° |
| 2026-04-24 19:49 | 52.14602 | 4.09645 | 53790 ft | 1129 kts | 235° |
| 2026-04-24 19:49 | 52.05551 | 3.88773 | 54113 ft | 1130 kts | 235° |
| 2026-04-24 19:50 | 51.91941 | 3.57720 | 54549 ft | 1131 kts | 235° |
| 2026-04-24 19:50 | 51.87367 | 3.47373 | 54683 ft | 1130 kts | 235° |
| 2026-04-24 19:51 | 51.78178 | 3.26719 | 54927 ft | 1131 kts | 234° |
| 2026-04-24 19:51 | 51.73568 | 3.16421 | 55040 ft | 1132 kts | 234° |
| 2026-04-24 19:52 | 51.64295 | 2.95845 | 55244 ft | 1140 kts | 234° |
| 2026-04-24 19:52 | 51.59626 | 2.85549 | 55365 ft | 1138 kts | 234° |
| 2026-04-24 19:52 | 51.55010 | 2.75414 | 55469 ft | 1140 kts | 234° |
| 2026-04-24 19:52 | 51.50321 | 2.65161 | 55565 ft | 1138 kts | 234° |
| 2026-04-24 19:53 | 51.40890 | 2.44672 | 55746 ft | 1139 kts | 234° |
| 2026-04-24 19:53 | 51.31459 | 2.24356 | 55908 ft | 1140 kts | 233° |
| 2026-04-24 19:54 | 51.26717 | 2.14206 | 55981 ft | 1140 kts | 233° |
| 2026-04-24 19:54 | 51.17195 | 1.93954 | 56121 ft | 1141 kts | 233° |
| 2026-04-24 19:55 | 51.09256 | 1.77197 | 56222 ft | 1141 kts | 233° |
| 2026-04-24 19:55 | 50.98105 | 1.53861 | 56351 ft | 1140 kts | 233° |
| 2026-04-24 19:56 | 50.88469 | 1.33880 | 56456 ft | 1141 kts | 233° |
| 2026-04-24 19:56 | 50.78797 | 1.13992 | 56545 ft | 1140 kts | 233° |
| 2026-04-24 19:57 | 50.69090 | 0.94199 | 56619 ft | 1140 kts | 232° |
| 2026-04-24 19:57 | 50.59454 | 0.74717 | 56657 ft | 1124 kts | 232° |
| 2026-04-24 19:58 | 50.49835 | 0.55437 | 56636 ft | 1121 kts | 232° |
| 2026-04-24 19:58 | 50.40163 | 0.36214 | 56613 ft | 1122 kts | 232° |
| 2026-04-24 19:59 | 50.30455 | 0.17084 | 56594 ft | 1122 kts | 232° |
| 2026-04-24 19:59 | 50.20776 | -0.01830 | 56586 ft | 1122 kts | 232° |
| 2026-04-24 20:00 | 50.10993 | -0.20788 | 56581 ft | 1122 kts | 231° |
| 2026-04-24 20:00 | 50.01166 | -0.39670 | 56564 ft | 1122 kts | 231° |
| 2026-04-24 20:01 | 49.91781 | -0.58953 | 56514 ft | 1117 kts | 241° |
| 2026-04-24 20:01 | 49.86188 | -0.81366 | 56442 ft | 1120 kts | 259° |
| 2026-04-24 20:02 | 49.85276 | -1.01322 | 56404 ft | 1121 kts | 275° |
| 2026-04-24 20:02 | 49.88959 | -1.28784 | 56385 ft | 1123 kts | 279° |
| 2026-04-24 20:03 | 49.89897 | -1.52873 | 56367 ft | 1123 kts | 264° |
| 2026-04-24 20:03 | 49.86626 | -1.76475 | 56335 ft | 1123 kts | 249° |
| 2026-04-24 20:04 | 49.79832 | -1.98210 | 56356 ft | 1122 kts | 243° |
| 2026-04-24 20:04 | 49.73286 | -2.19948 | 56375 ft | 1122 kts | 248° |
| 2026-04-24 20:05 | 49.69030 | -2.43090 | 56357 ft | 1122 kts | 259° |
| 2026-04-24 20:05 | 49.64495 | -2.66073 | 56353 ft | 1123 kts | 244° |
| 2026-04-24 20:06 | 49.56848 | -2.87075 | 56389 ft | 1124 kts | 239° |
| 2026-04-24 20:06 | 49.48736 | -3.07471 | 56436 ft | 1124 kts | 238° |
| 2026-04-24 20:07 | 49.42426 | -3.25081 | 56463 ft | 1124 kts | 244° |
| 2026-04-24 20:07 | 49.34180 | -3.49939 | 56512 ft | 1125 kts | 243° |
| 2026-04-24 20:08 | 49.27053 | -3.71277 | 56573 ft | 1124 kts | 243° |
| 2026-04-24 20:08 | 49.19897 | -3.92545 | 56619 ft | 1124 kts | 242° |
| 2026-04-24 20:09 | 49.12745 | -4.13621 | 56675 ft | 1125 kts | 242° |
| 2026-04-24 20:09 | 49.05504 | -4.34785 | 56708 ft | 1125 kts | 242° |
| 2026-04-24 20:10 | 48.98216 | -4.55912 | 56756 ft | 1126 kts | 242° |
| 2026-04-24 20:10 | 48.90886 | -4.76986 | 56791 ft | 1128 kts | 242° |
| 2026-04-24 20:11 | 48.83495 | -4.97997 | 56814 ft | 1129 kts | 239° |
| 2026-04-24 20:11 | 48.74107 | -5.16763 | 56802 ft | 1127 kts | 223° |
| 2026-04-24 20:12 | 48.61561 | -5.30873 | 56790 ft | 1127 kts | 207° |
| 2026-04-24 20:12 | 48.47200 | -5.40422 | 56808 ft | 1129 kts | 202° |
| 2026-04-24 20:13 | 48.32771 | -5.49723 | 56841 ft | 1129 kts | 204° |
| 2026-04-24 20:13 | 48.18615 | -5.59530 | 56860 ft | 1128 kts | 205° |
| 2026-04-24 20:14 | 48.04417 | -5.69538 | 56901 ft | 1127 kts | 206° |
| 2026-04-24 20:14 | 47.90792 | -5.81078 | 56900 ft | 1127 kts | 209° |
| 2026-04-24 20:15 | 47.77231 | -5.92731 | 56949 ft | 1126 kts | 210° |
| 2026-04-24 20:15 | 47.63666 | -6.04346 | 56974 ft | 1125 kts | 210° |
| 2026-04-24 20:16 | 47.50175 | -6.15827 | 57000 ft | 1125 kts | 210° |
| 2026-04-24 20:16 | 47.36579 | -6.27330 | 57037 ft | 1126 kts | 210° |
| 2026-04-24 20:17 | 47.22974 | -6.38772 | 57069 ft | 1126 kts | 210° |
| 2026-04-24 20:17 | 47.02639 | -6.55747 | 57123 ft | 1128 kts | 210° |
| 2026-04-24 20:18 | 46.88991 | -6.67057 | 57156 ft | 1129 kts | 210° |
| 2026-04-24 20:18 | 46.75312 | -6.78325 | 57182 ft | 1128 kts | 209° |
| 2026-04-24 20:19 | 46.61610 | -6.89547 | 57225 ft | 1130 kts | 209° |
| 2026-04-24 20:19 | 46.47979 | -7.00644 | 57255 ft | 1132 kts | 209° |
| 2026-04-24 20:20 | 46.34230 | -7.11773 | 57299 ft | 1132 kts | 209° |
| 2026-04-24 20:20 | 46.20461 | -7.22853 | 57337 ft | 1134 kts | 209° |
| 2026-04-24 20:21 | 46.06675 | -7.33883 | 57350 ft | 1134 kts | 209° |
| 2026-04-24 20:21 | 45.92957 | -7.44797 | 57405 ft | 1134 kts | 209° |
| 2026-04-24 20:22 | 45.79133 | -7.55731 | 57431 ft | 1134 kts | 209° |
| 2026-04-24 20:22 | 45.65309 | -7.66604 | 57453 ft | 1134 kts | 209° |
| 2026-04-24 20:23 | 45.51475 | -7.77422 | 57474 ft | 1133 kts | 209° |
| 2026-04-24 20:23 | 45.37627 | -7.88190 | 57495 ft | 1133 kts | 209° |
| 2026-04-24 20:24 | 45.23871 | -7.98827 | 57529 ft | 1134 kts | 209° |
| 2026-04-24 20:24 | 45.10018 | -8.09480 | 57551 ft | 1133 kts | 209° |
| 2026-04-24 20:25 | 44.96158 | -8.20078 | 57586 ft | 1133 kts | 209° |
| 2026-04-24 20:25 | 44.82288 | -8.30626 | 57605 ft | 1132 kts | 209° |
| 2026-04-24 20:26 | 44.68502 | -8.41052 | 57627 ft | 1132 kts | 209° |
| 2026-04-24 20:26 | 44.54619 | -8.51496 | 57648 ft | 1132 kts | 209° |
| 2026-04-24 20:27 | 44.40726 | -8.61889 | 57664 ft | 1131 kts | 209° |
| 2026-04-24 20:27 | 44.26831 | -8.72227 | 57700 ft | 1131 kts | 209° |
| 2026-04-24 20:28 | 44.13019 | -8.82449 | 57720 ft | 1132 kts | 209° |
| 2026-04-24 20:28 | 43.99111 | -8.92687 | 57741 ft | 1131 kts | 209° |
| 2026-04-24 20:29 | 43.85198 | -9.02874 | 57762 ft | 1130 kts | 208° |
| 2026-04-24 20:29 | 43.71275 | -9.13014 | 57785 ft | 1130 kts | 208° |
| 2026-04-24 20:30 | 43.57446 | -9.23032 | 57806 ft | 1131 kts | 208° |
| 2026-04-24 20:30 | 43.43512 | -9.33075 | 57821 ft | 1130 kts | 208° |
| 2026-04-24 20:31 | 43.29570 | -9.43070 | 57836 ft | 1130 kts | 208° |
| 2026-04-24 20:31 | 43.15416 | -9.52441 | 57821 ft | 1134 kts | 200° |
| 2026-04-24 20:32 | 43.00094 | -9.56820 | 57786 ft | 1139 kts | 184° |
| 2026-04-24 20:32 | 42.84284 | -9.55060 | 57744 ft | 1147 kts | 167° |
| 2026-04-24 20:33 | 42.68892 | -9.49319 | 57763 ft | 1147 kts | 166° |
| 2026-04-24 20:33 | 42.53352 | -9.44370 | 57786 ft | 1147 kts | 169° |
| 2026-04-24 20:34 | 42.37759 | -9.40665 | 57775 ft | 1145 kts | 177° |
| 2026-04-24 20:34 | 42.21872 | -9.39274 | 57796 ft | 1144 kts | 177° |
| 2026-04-24 20:35 | 42.05973 | -9.37633 | 57840 ft | 1145 kts | 176° |
| 2026-04-24 20:35 | 41.90078 | -9.36145 | 57846 ft | 1145 kts | 181° |
| 2026-04-24 20:36 | 41.74278 | -9.36801 | 57861 ft | 1145 kts | 182° |
| 2026-04-24 20:36 | 41.58352 | -9.37327 | 57905 ft | 1144 kts | 182° |
| 2026-04-24 20:37 | 41.42418 | -9.37831 | 57922 ft | 1145 kts | 182° |
| 2026-04-24 20:37 | 41.26464 | -9.38339 | 57964 ft | 1147 kts | 182° |
| 2026-04-24 20:38 | 41.10630 | -9.38843 | 57995 ft | 1147 kts | 182° |
| 2026-04-24 20:38 | 40.94670 | -9.39350 | 58025 ft | 1147 kts | 182° |
| 2026-04-24 20:39 | 40.78697 | -9.39855 | 58056 ft | 1148 kts | 182° |
| 2026-04-24 20:39 | 40.62720 | -9.40357 | 58094 ft | 1149 kts | 182° |
| 2026-04-24 20:40 | 40.46836 | -9.40855 | 58118 ft | 1150 kts | 182° |
| 2026-04-24 20:40 | 40.30840 | -9.41353 | 58154 ft | 1150 kts | 182° |
| 2026-04-24 20:41 | 40.14828 | -9.41850 | 58186 ft | 1151 kts | 182° |
| 2026-04-24 20:41 | 39.98815 | -9.42344 | 58210 ft | 1152 kts | 182° |
| 2026-04-24 20:42 | 39.82791 | -9.42837 | 58240 ft | 1152 kts | 182° |
| 2026-04-24 20:42 | 39.66869 | -9.43324 | 58259 ft | 1152 kts | 182° |
| 2026-04-24 20:43 | 39.50823 | -9.43812 | 58287 ft | 1154 kts | 182° |
| 2026-04-24 20:43 | 39.34786 | -9.44613 | 58288 ft | 1153 kts | 188° |
| 2026-04-24 20:44 | 39.18975 | -9.47078 | 58301 ft | 1152 kts | 188° |
| 2026-04-24 20:44 | 39.03029 | -9.49343 | 58313 ft | 1153 kts | 187° |
| 2026-04-24 20:45 | 38.87076 | -9.51565 | 58309 ft | 1154 kts | 187° |
| 2026-04-24 20:45 | 38.71111 | -9.53780 | 58314 ft | 1154 kts | 187° |
| 2026-04-24 20:46 | 38.55117 | -9.55508 | 58333 ft | 1157 kts | 180° |
| 2026-04-24 20:46 | 38.39293 | -9.52521 | 58301 ft | 1164 kts | 163° |
| 2026-04-24 20:47 | 38.24017 | -9.45579 | 58342 ft | 1167 kts | 160° |
| 2026-04-24 20:47 | 38.08860 | -9.38163 | 58362 ft | 1167 kts | 160° |
| 2026-04-24 20:48 | 38.01338 | -9.34741 | 58325 ft | 1136 kts | 166° |
| 2026-04-24 20:48 | 37.93768 | -9.32299 | 58233 ft | 1102 kts | 166° |
| 2026-04-24 20:48 | 37.86575 | -9.29773 | 58084 ft | 1073 kts | 166° |
| 2026-04-24 20:48 | 37.79463 | -9.27330 | 57862 ft | 1045 kts | 166° |
| 2026-04-24 20:49 | 37.72552 | -9.24920 | 57595 ft | 1018 kts | 166° |
| 2026-04-24 20:49 | 37.65803 | -9.22580 | 57244 ft | 993 kts | 166° |
| 2026-04-24 20:49 | 37.59225 | -9.20302 | 56858 ft | 968 kts | 166° |
| 2026-04-24 20:49 | 37.52815 | -9.18087 | 56436 ft | 942 kts | 166° |
| 2026-04-24 20:50 | 37.46577 | -9.15937 | 55969 ft | 916 kts | 166° |
| 2026-04-24 20:50 | 37.40523 | -9.13848 | 54622 ft | 894 kts | 166° |
| 2026-04-24 20:50 | 37.34617 | -9.11821 | 53024 ft | 884 kts | 166° |
| 2026-04-24 20:50 | 37.28780 | -9.09823 | 52321 ft | 854 kts | 166° |
| 2026-04-24 20:51 | 37.23183 | -9.07689 | 47102 ft | 867 kts | 165° |
| 2026-04-24 20:51 | 37.17451 | -9.05512 | 45694 ft | 844 kts | 165° |
| 2026-04-24 20:51 | 37.11976 | -9.03434 | 45388 ft | 801 kts | 165° |
| 2026-04-24 20:51 | 37.06779 | -9.01458 | 45175 ft | 759 kts | 165° |
| 2026-04-24 20:52 | 37.01828 | -8.99768 | 44889 ft | 719 kts | 167° |
| 2026-04-24 20:52 | 36.97210 | -8.97792 | 44473 ft | 687 kts | 155° |
| 2026-04-24 20:52 | 36.93207 | -8.94898 | 43072 ft | 666 kts | 144° |
| 2026-04-24 20:52 | 36.89697 | -8.91159 | 40168 ft | 666 kts | 132° |
| 2026-04-24 20:53 | 36.87071 | -8.86437 | 38620 ft | 651 kts | 113° |
| 2026-04-24 20:53 | 36.85518 | -8.81328 | 37699 ft | 611 kts | 105° |
| 2026-04-24 20:53 | 36.84475 | -8.76229 | 34216 ft | 613 kts | 91° |
| 2026-04-24 20:53 | 36.84507 | -8.71039 | 31961 ft | 582 kts | 75° |
| 2026-04-24 20:54 | 36.85471 | -8.66271 | 30052 ft | 556 kts | 67° |
| 2026-04-24 20:54 | 36.86573 | -8.61672 | 26773 ft | 557 kts | 75° |
| 2026-04-24 20:54 | 36.86875 | -8.56778 | 24145 ft | 570 kts | 90° |
| 2026-04-24 20:54 | 36.86635 | -8.52098 | 23894 ft | 524 kts | 93° |
| 2026-04-24 20:55 | 36.86245 | -8.47710 | 23302 ft | 495 kts | 95° |
| 2026-04-24 20:55 | 36.85746 | -8.43603 | 23107 ft | 463 kts | 97° |
| 2026-04-24 20:55 | 36.85202 | -8.39757 | 22869 ft | 437 kts | 98° |
| 2026-04-24 20:55 | 36.84574 | -8.36069 | 21471 ft | 438 kts | 103° |
| 2026-04-24 20:56 | 36.83637 | -8.32391 | 19900 ft | 448 kts | 104° |
| 2026-04-24 20:56 | 36.82912 | -8.28709 | 19539 ft | 425 kts | 100° |
| 2026-04-24 20:56 | 36.82297 | -8.25185 | 18753 ft | 412 kts | 101° |
| 2026-04-24 20:56 | 36.81530 | -8.21705 | 16674 ft | 433 kts | 107° |
| 2026-04-24 20:57 | 36.80648 | -8.18106 | 15826 ft | 424 kts | 103° |
| 2026-04-24 20:57 | 36.79855 | -8.14605 | 15077 ft | 413 kts | 105° |
| 2026-04-24 20:57 | 36.79053 | -8.11276 | 14890 ft | 389 kts | 105° |
| 2026-04-24 20:57 | 36.78282 | -8.08133 | 14663 ft | 371 kts | 105° |
| 2026-04-24 20:58 | 36.77564 | -8.05116 | 14413 ft | 355 kts | 100° |
| 2026-04-24 20:58 | 36.77437 | -8.02124 | 14107 ft | 340 kts | 83° |
| 2026-04-24 20:58 | 36.77623 | -8.00205 | 13920 ft | 333 kts | 78° |
| 2026-04-24 20:58 | 36.78247 | -7.96537 | 13488 ft | 321 kts | 74° |
| 2026-04-24 20:59 | 36.78814 | -7.93878 | 13149 ft | 315 kts | 72° |
| 2026-04-24 20:59 | 36.79474 | -7.91301 | 12803 ft | 309 kts | 68° |
| 2026-04-24 20:59 | 36.80521 | -7.89027 | 12444 ft | 302 kts | 41° |
| 2026-04-24 20:59 | 36.82306 | -7.87750 | 12091 ft | 296 kts | 17° |
| 2026-04-24 21:00 | 36.84284 | -7.87074 | 11737 ft | 293 kts | 15° |
| 2026-04-24 21:00 | 36.86074 | -7.85943 | 11357 ft | 290 kts | 45° |
| 2026-04-24 21:00 | 36.86961 | -7.84705 | 11122 ft | 289 kts | 51° |
| 2026-04-24 21:00 | 36.88166 | -7.82697 | 10411 ft | 292 kts | 57° |
| 2026-04-24 21:01 | 36.89794 | -7.79753 | 9310 ft | 312 kts | 50° |
| 2026-04-24 21:01 | 36.91231 | -7.77777 | 9033 ft | 303 kts | 46° |
| 2026-04-24 21:01 | 36.92690 | -7.75917 | 8739 ft | 296 kts | 46° |
| 2026-04-24 21:01 | 36.94138 | -7.74102 | 8336 ft | 293 kts | 46° |
| 2026-04-24 21:02 | 36.95084 | -7.72917 | 8142 ft | 289 kts | 46° |
| 2026-04-24 21:02 | 36.96884 | -7.70368 | 6519 ft | 319 kts | 50° |
| 2026-04-24 21:02 | 36.97864 | -7.68988 | 6190 ft | 317 kts | 52° |
| 2026-04-24 21:02 | 36.99265 | -7.66946 | 5975 ft | 304 kts | 37° |
| 2026-04-24 21:03 | 37.01077 | -7.65630 | 4790 ft | 305 kts | 26° |
| 2026-04-24 21:03 | 37.04081 | -7.65145 | 3245 ft | 335 kts | 353° |
| 2026-04-24 21:03 | 37.06371 | -7.65887 | 1950 ft | 345 kts | 329° |
| 2026-04-24 21:03 | 37.07604 | -7.67076 | 2123 ft | 323 kts | 312° |
| 2026-04-24 21:04 | 37.08637 | -7.69400 | 2108 ft | 304 kts | 283° |
| 2026-04-24 21:04 | 37.08577 | -7.71935 | 2107 ft | 287 kts | 250° |
| 2026-04-24 21:04 | 37.07523 | -7.73935 | 2088 ft | 268 kts | 225° |
| 2026-04-24 21:04 | 37.06182 | -7.75490 | 2058 ft | 256 kts | 222° |
| 2026-04-24 21:05 | 37.04923 | -7.76859 | 2045 ft | 224 kts | 221° |
| 2026-04-24 21:05 | 37.03773 | -7.78080 | 2057 ft | 217 kts | 221° |
| 2026-04-24 21:05 | 37.02619 | -7.79296 | 1990 ft | 215 kts | 220° |
| 2026-04-24 21:05 | 37.01448 | -7.80467 | 1975 ft | 217 kts | 210° |
| 2026-04-24 21:06 | 37.00102 | -7.81314 | 1968 ft | 218 kts | 221° |
| 2026-04-24 21:06 | 36.99331 | -7.83451 | 1988 ft | 210 kts | 277° |
| 2026-04-24 21:06 | 36.99461 | -7.84631 | 1814 ft | 203 kts | 281° |
| 2026-04-24 21:06 | 36.99734 | -7.86330 | 1394 ft | 193 kts | 288° |
| 2026-04-24 21:07 | 37.00105 | -7.87910 | 1056 ft | 191 kts | 290° |
| 2026-04-24 21:07 | 37.00387 | -7.89486 | 921 ft | 185 kts | 283° |
| 2026-04-24 21:07 | 37.00622 | -7.91072 | 713 ft | 180 kts | 282° |
| 2026-04-24 21:07 | 37.00869 | -7.92564 | 464 ft | 173 kts | 282° |
| 2026-04-24 21:08 | 37.01081 | -7.94071 | 329 ft | 179 kts | 283° |
| 2026-04-24 21:08 | 37.01299 | -7.95583 | 112 ft | 178 kts | 284° |
| 2026-04-24 21:08 | 37.01513 | -7.97036 | 30 ft | 159 kts | 279° |
| 2026-04-24 21:08 | 37.01666 | -7.98132 | 29 ft | 83 kts | 280° |
| 2026-04-24 21:09 | 37.01713 | -7.98485 | 30 ft | 19 kts | 279° |
| 2026-04-24 21:09 | 37.01759 | -7.98570 | 29 ft | 9 kts | 339° |
| 2026-04-24 21:09 | 37.01819 | -7.98571 | 27 ft | 8 kts | 10° |
| 2026-04-24 21:09 | 37.01864 | -7.98556 | 27 ft | 5 kts | 23° |
| 2026-04-24 21:10 | 37.01882 | -7.98534 | 27 ft | 2 kts | 47° |
| 2026-04-24 21:10 | 37.01892 | -7.98489 | 27 ft | 8 kts | 82° |
| 2026-04-24 21:10 | 37.01880 | -7.98357 | 27 ft | 27 kts | 99° |
| 2026-04-24 21:10 | 37.01838 | -7.98067 | 27 ft | 36 kts | 99° |
| 2026-04-24 21:11 | 37.01795 | -7.97763 | 27 ft | 35 kts | 99° |
| 2026-04-24 21:11 | 37.01754 | -7.97473 | 27 ft | 33 kts | 100° |
| 2026-04-24 21:11 | 37.01711 | -7.97191 | 27 ft | 33 kts | 101° |
| 2026-04-24 21:11 | 37.01674 | -7.96912 | 27 ft | 32 kts | 99° |
| 2026-04-24 21:12 | 37.01638 | -7.96661 | 27 ft | 16 kts | 99° |
| 2026-04-24 21:12 | 37.01632 | -7.96614 | 27 ft | 2 kts | 99° |
| 2026-04-24 21:12 | 37.01646 | -7.96554 | 27 ft | 14 kts | 63° |
| 2026-04-24 21:12 | 37.01706 | -7.96529 | 27 ft | 12 kts | 12° |
| 2026-04-24 21:13 | 37.01765 | -7.96554 | 27 ft | 5 kts | 313° |
| 2026-04-24 21:13 | 37.01810 | -7.96567 | 27 ft | 9 kts | 354° |
| 2026-04-24 21:13 | 37.01844 | -7.96564 | 27 ft | 3 kts | 4° |
| 2026-04-24 21:13 | 37.01860 | -7.96562 | 27 ft | 2 kts | 7° |
| 2026-04-24 21:14 | 37.01870 | -7.96560 | 27 ft | 0 kts | 8° |
| 2026-04-24 21:20 | 37.01869 | -7.96560 | 27 ft | 0 kts | 8° |